sensor_id;sensor_type;location;lat;lon;timestamp;temperature;humidity
21019;DHT22;10667;51.056;3.732;2022-07-17T00:00:18;21.00;94.10
21019;DHT22;10667;51.056;3.732;2022-07-17T00:02:44;21.10;94.20
21019;DHT22;10667;51.056;3.732;2022-07-17T00:05:10;21.10;93.60
21019;DHT22;10667;51.056;3.732;2022-07-17T00:07:35;21.10;93.80
21019;DHT22;10667;51.056;3.732;2022-07-17T00:10:01;21.00;94.70
21019;DHT22;10667;51.056;3.732;2022-07-17T00:12:27;21.00;94.40
21019;DHT22;10667;51.056;3.732;2022-07-17T00:14:53;21.00;94.80
21019;DHT22;10667;51.056;3.732;2022-07-17T00:17:19;21.00;94.70
21019;DHT22;10667;51.056;3.732;2022-07-17T00:19:47;20.90;94.70
21019;DHT22;10667;51.056;3.732;2022-07-17T00:22:12;20.90;95.10
21019;DHT22;10667;51.056;3.732;2022-07-17T00:24:38;20.90;95.40
21019;DHT22;10667;51.056;3.732;2022-07-17T00:27:04;20.70;95.30
21019;DHT22;10667;51.056;3.732;2022-07-17T00:29:29;20.70;96.00
21019;DHT22;10667;51.056;3.732;2022-07-17T00:31:55;20.80;96.10
21019;DHT22;10667;51.056;3.732;2022-07-17T00:34:21;20.80;96.50
21019;DHT22;10667;51.056;3.732;2022-07-17T00:36:47;20.70;96.50
21019;DHT22;10667;51.056;3.732;2022-07-17T00:39:13;20.60;96.60
21019;DHT22;10667;51.056;3.732;2022-07-17T00:41:38;20.60;97.50
21019;DHT22;10667;51.056;3.732;2022-07-17T00:44:05;20.60;97.90
21019;DHT22;10667;51.056;3.732;2022-07-17T00:46:31;20.50;97.80
21019;DHT22;10667;51.056;3.732;2022-07-17T00:48:57;20.40;98.20
21019;DHT22;10667;51.056;3.732;2022-07-17T00:51:23;20.50;98.70
21019;DHT22;10667;51.056;3.732;2022-07-17T00:53:50;20.60;98.80
21019;DHT22;10667;51.056;3.732;2022-07-17T00:56:17;20.50;99.20
21019;DHT22;10667;51.056;3.732;2022-07-17T00:58:44;20.50;99.40
21019;DHT22;10667;51.056;3.732;2022-07-17T01:01:10;20.50;99.90
21019;DHT22;10667;51.056;3.732;2022-07-17T01:03:35;20.40;99.90
21019;DHT22;10667;51.056;3.732;2022-07-17T01:06:02;20.40;99.90
21019;DHT22;10667;51.056;3.732;2022-07-17T01:08:28;20.30;99.90
21019;DHT22;10667;51.056;3.732;2022-07-17T01:10:54;20.20;99.90
21019;DHT22;10667;51.056;3.732;2022-07-17T01:13:20;20.10;99.90
21019;DHT22;10667;51.056;3.732;2022-07-17T01:15:46;20.10;99.90
21019;DHT22;10667;51.056;3.732;2022-07-17T01:18:13;20.20;99.90
21019;DHT22;10667;51.056;3.732;2022-07-17T01:20:43;20.10;99.90
21019;DHT22;10667;51.056;3.732;2022-07-17T01:23:09;20.10;99.90
21019;DHT22;10667;51.056;3.732;2022-07-17T01:25:35;20.10;99.90
21019;DHT22;10667;51.056;3.732;2022-07-17T01:28:02;20.00;99.90
21019;DHT22;10667;51.056;3.732;2022-07-17T01:30:28;20.00;99.90
21019;DHT22;10667;51.056;3.732;2022-07-17T01:32:54;19.90;99.90
21019;DHT22;10667;51.056;3.732;2022-07-17T01:35:20;19.90;99.90
21019;DHT22;10667;51.056;3.732;2022-07-17T01:37:46;19.90;99.90
21019;DHT22;10667;51.056;3.732;2022-07-17T01:40:13;19.90;99.90
21019;DHT22;10667;51.056;3.732;2022-07-17T01:42:45;19.90;99.90
21019;DHT22;10667;51.056;3.732;2022-07-17T01:45:12;19.90;99.90
21019;DHT22;10667;51.056;3.732;2022-07-17T01:47:38;19.80;99.90
21019;DHT22;10667;51.056;3.732;2022-07-17T01:50:04;19.80;99.90
21019;DHT22;10667;51.056;3.732;2022-07-17T01:52:30;19.70;99.90
21019;DHT22;10667;51.056;3.732;2022-07-17T01:54:56;19.70;99.90
21019;DHT22;10667;51.056;3.732;2022-07-17T01:57:22;19.70;99.90
21019;DHT22;10667;51.056;3.732;2022-07-17T01:59:48;19.60;99.90
21019;DHT22;10667;51.056;3.732;2022-07-17T02:02:14;19.60;99.90
21019;DHT22;10667;51.056;3.732;2022-07-17T02:04:43;19.60;99.90
21019;DHT22;10667;51.056;3.732;2022-07-17T02:07:09;19.60;99.90
21019;DHT22;10667;51.056;3.732;2022-07-17T02:09:36;19.50;99.90
21019;DHT22;10667;51.056;3.732;2022-07-17T02:12:02;19.60;99.90
21019;DHT22;10667;51.056;3.732;2022-07-17T02:14:28;19.50;99.90
21019;DHT22;10667;51.056;3.732;2022-07-17T02:16:54;19.50;99.90
21019;DHT22;10667;51.056;3.732;2022-07-17T02:19:19;19.50;99.90
21019;DHT22;10667;51.056;3.732;2022-07-17T02:21:45;19.50;99.90
21019;DHT22;10667;51.056;3.732;2022-07-17T02:24:11;19.40;99.90
21019;DHT22;10667;51.056;3.732;2022-07-17T02:26:36;19.40;99.90
21019;DHT22;10667;51.056;3.732;2022-07-17T02:29:02;19.30;99.90
21019;DHT22;10667;51.056;3.732;2022-07-17T02:31:28;19.30;99.90
21019;DHT22;10667;51.056;3.732;2022-07-17T02:33:53;19.30;99.90
21019;DHT22;10667;51.056;3.732;2022-07-17T02:36:19;19.30;99.90
21019;DHT22;10667;51.056;3.732;2022-07-17T02:38:45;19.30;99.90
21019;DHT22;10667;51.056;3.732;2022-07-17T02:41:10;19.30;99.90
21019;DHT22;10667;51.056;3.732;2022-07-17T02:43:36;19.40;99.90
21019;DHT22;10667;51.056;3.732;2022-07-17T02:46:02;19.40;99.90
21019;DHT22;10667;51.056;3.732;2022-07-17T02:48:28;19.40;99.90
21019;DHT22;10667;51.056;3.732;2022-07-17T02:50:54;19.40;99.90
21019;DHT22;10667;51.056;3.732;2022-07-17T02:53:19;19.50;99.90
21019;DHT22;10667;51.056;3.732;2022-07-17T02:55:45;19.40;99.90
21019;DHT22;10667;51.056;3.732;2022-07-17T02:58:11;19.40;99.90
21019;DHT22;10667;51.056;3.732;2022-07-17T03:00:37;19.30;99.90
21019;DHT22;10667;51.056;3.732;2022-07-17T03:03:03;19.30;99.90
21019;DHT22;10667;51.056;3.732;2022-07-17T03:05:28;19.30;99.90
21019;DHT22;10667;51.056;3.732;2022-07-17T03:07:54;19.20;99.90
21019;DHT22;10667;51.056;3.732;2022-07-17T03:10:20;19.20;99.90
21019;DHT22;10667;51.056;3.732;2022-07-17T03:12:45;19.20;99.90
21019;DHT22;10667;51.056;3.732;2022-07-17T03:15:11;19.20;99.90
21019;DHT22;10667;51.056;3.732;2022-07-17T03:17:40;19.00;99.90
21019;DHT22;10667;51.056;3.732;2022-07-17T03:20:08;19.00;99.90
21019;DHT22;10667;51.056;3.732;2022-07-17T03:22:34;19.10;99.90
21019;DHT22;10667;51.056;3.732;2022-07-17T03:24:59;19.10;99.90
21019;DHT22;10667;51.056;3.732;2022-07-17T03:27:25;19.10;99.90
21019;DHT22;10667;51.056;3.732;2022-07-17T03:29:52;19.10;99.90
21019;DHT22;10667;51.056;3.732;2022-07-17T03:32:17;19.10;99.90
21019;DHT22;10667;51.056;3.732;2022-07-17T03:34:43;19.10;99.90
21019;DHT22;10667;51.056;3.732;2022-07-17T03:37:09;19.10;99.90
21019;DHT22;10667;51.056;3.732;2022-07-17T03:39:35;19.00;99.90
21019;DHT22;10667;51.056;3.732;2022-07-17T03:42:00;19.10;99.90
21019;DHT22;10667;51.056;3.732;2022-07-17T03:44:26;19.10;99.90
21019;DHT22;10667;51.056;3.732;2022-07-17T03:46:52;19.10;99.90
21019;DHT22;10667;51.056;3.732;2022-07-17T03:49:17;19.10;99.90
21019;DHT22;10667;51.056;3.732;2022-07-17T03:51:43;19.00;99.90
21019;DHT22;10667;51.056;3.732;2022-07-17T03:54:09;18.90;99.90
21019;DHT22;10667;51.056;3.732;2022-07-17T03:56:34;19.00;99.90
21019;DHT22;10667;51.056;3.732;2022-07-17T03:59:00;18.90;99.90
21019;DHT22;10667;51.056;3.732;2022-07-17T04:01:26;18.90;99.90
21019;DHT22;10667;51.056;3.732;2022-07-17T04:03:51;18.90;99.90
21019;DHT22;10667;51.056;3.732;2022-07-17T04:06:17;19.00;99.90
21019;DHT22;10667;51.056;3.732;2022-07-17T04:08:43;18.90;99.90
21019;DHT22;10667;51.056;3.732;2022-07-17T04:11:09;18.90;99.90
21019;DHT22;10667;51.056;3.732;2022-07-17T04:13:35;18.90;99.90
21019;DHT22;10667;51.056;3.732;2022-07-17T04:16:00;18.80;99.90
21019;DHT22;10667;51.056;3.732;2022-07-17T04:18:29;18.80;99.90
21019;DHT22;10667;51.056;3.732;2022-07-17T04:20:58;18.70;99.90
21019;DHT22;10667;51.056;3.732;2022-07-17T04:23:24;18.60;99.90
21019;DHT22;10667;51.056;3.732;2022-07-17T04:25:50;18.60;99.90
21019;DHT22;10667;51.056;3.732;2022-07-17T04:28:16;18.60;99.90
21019;DHT22;10667;51.056;3.732;2022-07-17T04:30:42;18.40;99.90
21019;DHT22;10667;51.056;3.732;2022-07-17T04:33:08;18.30;99.90
21019;DHT22;10667;51.056;3.732;2022-07-17T04:35:34;18.20;99.90
21019;DHT22;10667;51.056;3.732;2022-07-17T04:38:01;18.20;99.90
21019;DHT22;10667;51.056;3.732;2022-07-17T04:40:27;18.30;99.90
21019;DHT22;10667;51.056;3.732;2022-07-17T04:42:53;18.40;99.90
21019;DHT22;10667;51.056;3.732;2022-07-17T04:45:19;18.40;99.90
21019;DHT22;10667;51.056;3.732;2022-07-17T04:47:45;18.30;99.90
21019;DHT22;10667;51.056;3.732;2022-07-17T04:50:10;18.30;99.90
21019;DHT22;10667;51.056;3.732;2022-07-17T04:52:36;18.30;99.90
21019;DHT22;10667;51.056;3.732;2022-07-17T04:55:03;18.40;99.90
21019;DHT22;10667;51.056;3.732;2022-07-17T04:57:29;18.30;99.90
21019;DHT22;10667;51.056;3.732;2022-07-17T04:59:54;18.30;99.90
21019;DHT22;10667;51.056;3.732;2022-07-17T05:02:20;18.30;99.90
21019;DHT22;10667;51.056;3.732;2022-07-17T05:04:46;18.40;99.90
21019;DHT22;10667;51.056;3.732;2022-07-17T05:07:12;18.40;99.90
21019;DHT22;10667;51.056;3.732;2022-07-17T05:09:38;18.40;99.90
21019;DHT22;10667;51.056;3.732;2022-07-17T05:12:04;18.50;99.90
21019;DHT22;10667;51.056;3.732;2022-07-17T05:14:30;18.50;99.90
21019;DHT22;10667;51.056;3.732;2022-07-17T05:16:55;18.50;99.90
21019;DHT22;10667;51.056;3.732;2022-07-17T05:19:21;18.50;99.90
21019;DHT22;10667;51.056;3.732;2022-07-17T05:21:48;18.50;99.90
21019;DHT22;10667;51.056;3.732;2022-07-17T05:24:14;18.60;99.90
21019;DHT22;10667;51.056;3.732;2022-07-17T05:26:40;18.50;99.90
21019;DHT22;10667;51.056;3.732;2022-07-17T05:29:05;18.50;99.90
21019;DHT22;10667;51.056;3.732;2022-07-17T05:31:31;18.50;99.90
21019;DHT22;10667;51.056;3.732;2022-07-17T05:33:57;18.50;99.90
21019;DHT22;10667;51.056;3.732;2022-07-17T05:36:22;18.50;99.90
21019;DHT22;10667;51.056;3.732;2022-07-17T05:38:48;18.60;99.90
21019;DHT22;10667;51.056;3.732;2022-07-17T05:41:13;18.60;99.90
21019;DHT22;10667;51.056;3.732;2022-07-17T05:43:39;18.60;99.90
21019;DHT22;10667;51.056;3.732;2022-07-17T05:46:05;18.60;99.90
21019;DHT22;10667;51.056;3.732;2022-07-17T05:48:31;18.60;99.90
21019;DHT22;10667;51.056;3.732;2022-07-17T05:50:57;18.60;99.90
21019;DHT22;10667;51.056;3.732;2022-07-17T05:53:23;18.70;99.90
21019;DHT22;10667;51.056;3.732;2022-07-17T05:55:49;18.70;99.90
21019;DHT22;10667;51.056;3.732;2022-07-17T05:58:15;18.90;99.90
21019;DHT22;10667;51.056;3.732;2022-07-17T06:00:41;18.80;99.90
21019;DHT22;10667;51.056;3.732;2022-07-17T06:03:07;18.80;99.90
21019;DHT22;10667;51.056;3.732;2022-07-17T06:05:32;18.70;99.90
21019;DHT22;10667;51.056;3.732;2022-07-17T06:07:59;18.70;99.90
21019;DHT22;10667;51.056;3.732;2022-07-17T06:10:25;18.70;99.90
21019;DHT22;10667;51.056;3.732;2022-07-17T06:12:52;18.70;99.90
21019;DHT22;10667;51.056;3.732;2022-07-17T06:15:19;18.80;99.90
21019;DHT22;10667;51.056;3.732;2022-07-17T06:17:45;18.60;99.90
21019;DHT22;10667;51.056;3.732;2022-07-17T06:20:12;18.70;99.90
21019;DHT22;10667;51.056;3.732;2022-07-17T06:22:38;18.70;99.90
21019;DHT22;10667;51.056;3.732;2022-07-17T06:25:04;18.70;99.90
21019;DHT22;10667;51.056;3.732;2022-07-17T06:27:29;18.90;99.90
21019;DHT22;10667;51.056;3.732;2022-07-17T06:29:55;18.90;99.90
21019;DHT22;10667;51.056;3.732;2022-07-17T06:32:21;18.90;99.90
21019;DHT22;10667;51.056;3.732;2022-07-17T06:34:46;19.00;99.90
21019;DHT22;10667;51.056;3.732;2022-07-17T06:37:12;19.00;99.90
21019;DHT22;10667;51.056;3.732;2022-07-17T06:39:38;19.10;99.90
21019;DHT22;10667;51.056;3.732;2022-07-17T06:42:04;19.20;99.90
21019;DHT22;10667;51.056;3.732;2022-07-17T06:44:29;19.20;99.90
21019;DHT22;10667;51.056;3.732;2022-07-17T06:46:55;19.20;99.90
21019;DHT22;10667;51.056;3.732;2022-07-17T06:49:21;19.20;99.90
21019;DHT22;10667;51.056;3.732;2022-07-17T06:51:46;19.30;99.90
21019;DHT22;10667;51.056;3.732;2022-07-17T06:54:13;19.40;99.90
21019;DHT22;10667;51.056;3.732;2022-07-17T06:56:40;19.60;99.90
21019;DHT22;10667;51.056;3.732;2022-07-17T06:59:05;19.70;99.90
21019;DHT22;10667;51.056;3.732;2022-07-17T07:01:35;19.70;99.90
21019;DHT22;10667;51.056;3.732;2022-07-17T07:04:02;19.70;99.90
21019;DHT22;10667;51.056;3.732;2022-07-17T07:06:29;19.70;99.90
21019;DHT22;10667;51.056;3.732;2022-07-17T07:08:54;19.90;99.90
21019;DHT22;10667;51.056;3.732;2022-07-17T07:11:20;19.90;99.90
21019;DHT22;10667;51.056;3.732;2022-07-17T07:13:46;20.00;99.90
21019;DHT22;10667;51.056;3.732;2022-07-17T07:16:12;20.00;99.90
21019;DHT22;10667;51.056;3.732;2022-07-17T07:18:38;20.10;99.90
21019;DHT22;10667;51.056;3.732;2022-07-17T07:21:03;20.10;99.90
21019;DHT22;10667;51.056;3.732;2022-07-17T07:23:29;20.10;99.90
21019;DHT22;10667;51.056;3.732;2022-07-17T07:25:55;20.10;99.90
21019;DHT22;10667;51.056;3.732;2022-07-17T07:28:20;20.20;99.90
21019;DHT22;10667;51.056;3.732;2022-07-17T07:30:46;20.30;99.90
21019;DHT22;10667;51.056;3.732;2022-07-17T07:33:12;20.30;99.90
21019;DHT22;10667;51.056;3.732;2022-07-17T07:35:38;20.30;99.90
21019;DHT22;10667;51.056;3.732;2022-07-17T07:38:04;20.50;99.90
21019;DHT22;10667;51.056;3.732;2022-07-17T07:40:30;20.60;99.90
21019;DHT22;10667;51.056;3.732;2022-07-17T07:42:56;20.70;99.90
21019;DHT22;10667;51.056;3.732;2022-07-17T07:45:22;20.80;99.90
21019;DHT22;10667;51.056;3.732;2022-07-17T07:47:48;20.80;99.90
21019;DHT22;10667;51.056;3.732;2022-07-17T07:50:16;20.80;99.90
21019;DHT22;10667;51.056;3.732;2022-07-17T07:52:43;21.00;99.90
21019;DHT22;10667;51.056;3.732;2022-07-17T07:55:13;21.00;99.90
21019;DHT22;10667;51.056;3.732;2022-07-17T07:57:38;21.20;99.90
21019;DHT22;10667;51.056;3.732;2022-07-17T08:00:05;21.40;99.90
21019;DHT22;10667;51.056;3.732;2022-07-17T08:02:32;21.40;99.90
21019;DHT22;10667;51.056;3.732;2022-07-17T08:04:58;21.40;99.90
21019;DHT22;10667;51.056;3.732;2022-07-17T08:07:26;21.60;99.90
21019;DHT22;10667;51.056;3.732;2022-07-17T08:09:52;21.70;99.90
21019;DHT22;10667;51.056;3.732;2022-07-17T08:12:18;21.70;99.90
21019;DHT22;10667;51.056;3.732;2022-07-17T08:14:43;21.80;99.90
21019;DHT22;10667;51.056;3.732;2022-07-17T08:17:09;21.90;99.90
21019;DHT22;10667;51.056;3.732;2022-07-17T08:19:34;21.90;99.90
21019;DHT22;10667;51.056;3.732;2022-07-17T08:22:00;22.10;99.90
21019;DHT22;10667;51.056;3.732;2022-07-17T08:24:26;22.10;99.90
21019;DHT22;10667;51.056;3.732;2022-07-17T08:26:51;22.00;99.90
21019;DHT22;10667;51.056;3.732;2022-07-17T08:29:17;22.20;99.90
21019;DHT22;10667;51.056;3.732;2022-07-17T08:31:43;22.30;99.90
21019;DHT22;10667;51.056;3.732;2022-07-17T08:34:09;22.50;99.90
21019;DHT22;10667;51.056;3.732;2022-07-17T08:36:35;22.70;99.90
21019;DHT22;10667;51.056;3.732;2022-07-17T08:39:01;22.80;99.90
21019;DHT22;10667;51.056;3.732;2022-07-17T08:41:28;22.90;99.90
21019;DHT22;10667;51.056;3.732;2022-07-17T08:43:54;23.10;99.90
21019;DHT22;10667;51.056;3.732;2022-07-17T08:46:23;23.30;99.90
21019;DHT22;10667;51.056;3.732;2022-07-17T08:48:55;23.50;99.50
21019;DHT22;10667;51.056;3.732;2022-07-17T08:51:21;23.70;99.20
21019;DHT22;10667;51.056;3.732;2022-07-17T08:53:47;23.90;98.50
21019;DHT22;10667;51.056;3.732;2022-07-17T08:56:13;24.10;98.40
21019;DHT22;10667;51.056;3.732;2022-07-17T08:58:39;24.20;96.70
21019;DHT22;10667;51.056;3.732;2022-07-17T09:01:05;24.40;96.30
21019;DHT22;10667;51.056;3.732;2022-07-17T09:03:31;24.20;96.40
21019;DHT22;10667;51.056;3.732;2022-07-17T09:05:56;24.10;96.50
21019;DHT22;10667;51.056;3.732;2022-07-17T09:08:23;24.10;96.10
21019;DHT22;10667;51.056;3.732;2022-07-17T09:10:51;24.00;95.60
21019;DHT22;10667;51.056;3.732;2022-07-17T09:13:28;24.00;95.50
21019;DHT22;10667;51.056;3.732;2022-07-17T09:16:10;23.90;96.40
21019;DHT22;10667;51.056;3.732;2022-07-17T09:18:51;24.10;95.00
21019;DHT22;10667;51.056;3.732;2022-07-17T09:21:23;24.10;94.40
21019;DHT22;10667;51.056;3.732;2022-07-17T09:24:03;24.00;93.10
21019;DHT22;10667;51.056;3.732;2022-07-17T09:26:30;24.10;94.40
21019;DHT22;10667;51.056;3.732;2022-07-17T09:28:57;24.20;95.10
21019;DHT22;10667;51.056;3.732;2022-07-17T09:31:31;24.30;94.20
21019;DHT22;10667;51.056;3.732;2022-07-17T09:33:58;24.50;93.40
21019;DHT22;10667;51.056;3.732;2022-07-17T09:36:24;24.70;92.30
21019;DHT22;10667;51.056;3.732;2022-07-17T09:38:55;25.00;92.10
21019;DHT22;10667;51.056;3.732;2022-07-17T09:41:22;25.20;90.50
21019;DHT22;10667;51.056;3.732;2022-07-17T09:43:54;25.20;89.90
21019;DHT22;10667;51.056;3.732;2022-07-17T09:46:40;25.30;89.90
21019;DHT22;10667;51.056;3.732;2022-07-17T09:49:07;25.60;89.90
21019;DHT22;10667;51.056;3.732;2022-07-17T09:51:37;25.70;89.20
21019;DHT22;10667;51.056;3.732;2022-07-17T09:54:05;25.70;88.60
21019;DHT22;10667;51.056;3.732;2022-07-17T09:56:32;25.70;87.90
21019;DHT22;10667;51.056;3.732;2022-07-17T09:59:04;25.70;88.60
21019;DHT22;10667;51.056;3.732;2022-07-17T10:01:31;25.80;88.60
21019;DHT22;10667;51.056;3.732;2022-07-17T10:03:57;26.00;87.70
21019;DHT22;10667;51.056;3.732;2022-07-17T10:06:24;26.10;87.40
21019;DHT22;10667;51.056;3.732;2022-07-17T10:08:51;26.20;83.70
21019;DHT22;10667;51.056;3.732;2022-07-17T10:11:20;26.30;83.70
21019;DHT22;10667;51.056;3.732;2022-07-17T10:13:48;26.50;84.60
21019;DHT22;10667;51.056;3.732;2022-07-17T10:16:26;26.60;80.90
21019;DHT22;10667;51.056;3.732;2022-07-17T10:18:52;26.90;81.20
21019;DHT22;10667;51.056;3.732;2022-07-17T10:21:21;27.10;76.90
21019;DHT22;10667;51.056;3.732;2022-07-17T10:24:05;27.40;75.20
21019;DHT22;10667;51.056;3.732;2022-07-17T10:28:58;27.40;73.80
21019;DHT22;10667;51.056;3.732;2022-07-17T10:31:28;27.40;72.90
21019;DHT22;10667;51.056;3.732;2022-07-17T10:34:05;27.50;71.50
21019;DHT22;10667;51.056;3.732;2022-07-17T10:36:36;27.70;70.70
21019;DHT22;10667;51.056;3.732;2022-07-17T10:39:20;28.00;68.20
21019;DHT22;10667;51.056;3.732;2022-07-17T10:42:00;28.20;69.20
21019;DHT22;10667;51.056;3.732;2022-07-17T10:44:30;28.40;67.40
21019;DHT22;10667;51.056;3.732;2022-07-17T10:46:58;28.50;64.60
21019;DHT22;10667;51.056;3.732;2022-07-17T10:49:25;28.50;64.40
21019;DHT22;10667;51.056;3.732;2022-07-17T10:51:51;28.50;65.20
21019;DHT22;10667;51.056;3.732;2022-07-17T10:54:17;28.80;66.80
21019;DHT22;10667;51.056;3.732;2022-07-17T10:56:43;29.00;66.10
21019;DHT22;10667;51.056;3.732;2022-07-17T10:59:10;29.10;63.30
21019;DHT22;10667;51.056;3.732;2022-07-17T11:01:36;29.10;64.40
21019;DHT22;10667;51.056;3.732;2022-07-17T11:04:02;29.30;64.70
21019;DHT22;10667;51.056;3.732;2022-07-17T11:06:33;29.30;61.70
21019;DHT22;10667;51.056;3.732;2022-07-17T11:09:00;29.40;62.00
21019;DHT22;10667;51.056;3.732;2022-07-17T11:11:40;29.40;59.20
21019;DHT22;10667;51.056;3.732;2022-07-17T11:14:11;29.70;60.90
21019;DHT22;10667;51.056;3.732;2022-07-17T11:16:39;29.90;60.10
21019;DHT22;10667;51.056;3.732;2022-07-17T11:19:08;30.30;58.70
21019;DHT22;10667;51.056;3.732;2022-07-17T11:21:45;30.80;58.80
21019;DHT22;10667;51.056;3.732;2022-07-17T11:24:11;31.30;58.00
21019;DHT22;10667;51.056;3.732;2022-07-17T11:26:36;31.30;56.20
21019;DHT22;10667;51.056;3.732;2022-07-17T11:29:02;31.50;57.50
21019;DHT22;10667;51.056;3.732;2022-07-17T11:31:28;31.70;55.40
21019;DHT22;10667;51.056;3.732;2022-07-17T11:33:58;32.00;52.60
21019;DHT22;10667;51.056;3.732;2022-07-17T11:38:52;32.60;50.90
21019;DHT22;10667;51.056;3.732;2022-07-17T11:41:18;32.70;50.60
21019;DHT22;10667;51.056;3.732;2022-07-17T11:43:45;33.00;49.70
21019;DHT22;10667;51.056;3.732;2022-07-17T11:46:10;33.30;47.60
21019;DHT22;10667;51.056;3.732;2022-07-17T11:48:36;33.70;47.50
21019;DHT22;10667;51.056;3.732;2022-07-17T11:51:05;34.20;46.70
21019;DHT22;10667;51.056;3.732;2022-07-17T11:53:33;34.50;45.50
21019;DHT22;10667;51.056;3.732;2022-07-17T11:56:00;35.10;44.40
21019;DHT22;10667;51.056;3.732;2022-07-17T11:58:26;35.90;41.90
21019;DHT22;10667;51.056;3.732;2022-07-17T12:01:03;36.90;40.60
21019;DHT22;10667;51.056;3.732;2022-07-17T12:03:29;37.70;38.80
21019;DHT22;10667;51.056;3.732;2022-07-17T12:05:55;37.80;36.70
21019;DHT22;10667;51.056;3.732;2022-07-17T12:08:21;38.40;37.30
21019;DHT22;10667;51.056;3.732;2022-07-17T12:10:47;38.80;35.90
21019;DHT22;10667;51.056;3.732;2022-07-17T12:13:15;39.20;34.00
21019;DHT22;10667;51.056;3.732;2022-07-17T12:15:46;39.40;33.00
21019;DHT22;10667;51.056;3.732;2022-07-17T12:18:24;39.90;33.30
21019;DHT22;10667;51.056;3.732;2022-07-17T12:20:53;40.60;32.60
21019;DHT22;10667;51.056;3.732;2022-07-17T12:23:37;40.60;31.00
21019;DHT22;10667;51.056;3.732;2022-07-17T12:26:14;40.90;32.10
21019;DHT22;10667;51.056;3.732;2022-07-17T12:28:43;41.20;30.70
21019;DHT22;10667;51.056;3.732;2022-07-17T12:31:12;41.10;31.00
21019;DHT22;10667;51.056;3.732;2022-07-17T12:33:39;41.20;30.10
21019;DHT22;10667;51.056;3.732;2022-07-17T12:36:05;41.20;30.60
21019;DHT22;10667;51.056;3.732;2022-07-17T12:38:31;41.40;29.70
21019;DHT22;10667;51.056;3.732;2022-07-17T12:40:56;41.50;29.60
21019;DHT22;10667;51.056;3.732;2022-07-17T12:43:23;41.50;29.10
21019;DHT22;10667;51.056;3.732;2022-07-17T12:45:49;41.40;29.00
21019;DHT22;10667;51.056;3.732;2022-07-17T12:48:15;41.60;29.80
21019;DHT22;10667;51.056;3.732;2022-07-17T12:50:40;41.10;29.70
21019;DHT22;10667;51.056;3.732;2022-07-17T12:53:06;41.00;29.10
21019;DHT22;10667;51.056;3.732;2022-07-17T12:55:33;40.80;29.10
21019;DHT22;10667;51.056;3.732;2022-07-17T12:57:59;41.20;29.20
21019;DHT22;10667;51.056;3.732;2022-07-17T13:00:24;41.20;28.60
21019;DHT22;10667;51.056;3.732;2022-07-17T13:02:50;41.20;29.10
21019;DHT22;10667;51.056;3.732;2022-07-17T13:05:16;41.10;27.70
21019;DHT22;10667;51.056;3.732;2022-07-17T13:07:42;41.10;28.00
21019;DHT22;10667;51.056;3.732;2022-07-17T13:10:08;41.10;28.50
21019;DHT22;10667;51.056;3.732;2022-07-17T13:12:35;41.00;28.60
21019;DHT22;10667;51.056;3.732;2022-07-17T13:15:01;41.00;28.70
21019;DHT22;10667;51.056;3.732;2022-07-17T13:17:28;41.00;28.10
21019;DHT22;10667;51.056;3.732;2022-07-17T13:19:54;41.20;28.80
21019;DHT22;10667;51.056;3.732;2022-07-17T13:22:19;41.30;27.30
21019;DHT22;10667;51.056;3.732;2022-07-17T13:24:45;41.40;26.80
21019;DHT22;10667;51.056;3.732;2022-07-17T13:27:10;41.60;27.60
21019;DHT22;10667;51.056;3.732;2022-07-17T13:29:36;41.00;26.50
21019;DHT22;10667;51.056;3.732;2022-07-17T13:32:03;41.00;27.50
21019;DHT22;10667;51.056;3.732;2022-07-17T13:34:29;41.40;27.70
21019;DHT22;10667;51.056;3.732;2022-07-17T13:36:55;41.20;27.80
21019;DHT22;10667;51.056;3.732;2022-07-17T13:39:20;41.10;28.20
21019;DHT22;10667;51.056;3.732;2022-07-17T13:41:46;40.90;27.50
21019;DHT22;10667;51.056;3.732;2022-07-17T13:44:13;41.40;27.20
21019;DHT22;10667;51.056;3.732;2022-07-17T13:46:39;41.40;26.20
21019;DHT22;10667;51.056;3.732;2022-07-17T13:49:05;41.80;25.50
21019;DHT22;10667;51.056;3.732;2022-07-17T13:51:31;41.70;25.90
21019;DHT22;10667;51.056;3.732;2022-07-17T13:53:57;41.60;26.70
21019;DHT22;10667;51.056;3.732;2022-07-17T13:56:23;41.90;27.30
21019;DHT22;10667;51.056;3.732;2022-07-17T13:58:49;41.90;27.50
21019;DHT22;10667;51.056;3.732;2022-07-17T14:01:15;42.00;26.90
21019;DHT22;10667;51.056;3.732;2022-07-17T14:03:41;42.20;28.50
21019;DHT22;10667;51.056;3.732;2022-07-17T14:06:07;42.10;27.30
21019;DHT22;10667;51.056;3.732;2022-07-17T14:08:35;42.30;27.40
21019;DHT22;10667;51.056;3.732;2022-07-17T14:11:01;41.90;27.70
21019;DHT22;10667;51.056;3.732;2022-07-17T14:13:27;41.80;27.80
21019;DHT22;10667;51.056;3.732;2022-07-17T14:15:53;41.80;27.70
21019;DHT22;10667;51.056;3.732;2022-07-17T14:18:18;41.40;26.90
21019;DHT22;10667;51.056;3.732;2022-07-17T14:20:44;41.20;26.40
21019;DHT22;10667;51.056;3.732;2022-07-17T14:23:11;41.20;27.80
21019;DHT22;10667;51.056;3.732;2022-07-17T14:25:37;41.30;27.80
21019;DHT22;10667;51.056;3.732;2022-07-17T14:28:03;41.70;26.90
21019;DHT22;10667;51.056;3.732;2022-07-17T14:30:29;41.60;27.50
21019;DHT22;10667;51.056;3.732;2022-07-17T14:32:54;41.80;27.40
21019;DHT22;10667;51.056;3.732;2022-07-17T14:35:21;42.00;27.50
21019;DHT22;10667;51.056;3.732;2022-07-17T14:37:47;42.00;27.30
21019;DHT22;10667;51.056;3.732;2022-07-17T14:40:13;41.20;26.60
21019;DHT22;10667;51.056;3.732;2022-07-17T14:42:39;41.10;27.10
21019;DHT22;10667;51.056;3.732;2022-07-17T14:45:05;41.10;27.50
21019;DHT22;10667;51.056;3.732;2022-07-17T14:47:31;41.20;26.80
21019;DHT22;10667;51.056;3.732;2022-07-17T14:49:57;41.40;27.20
21019;DHT22;10667;51.056;3.732;2022-07-17T14:52:23;41.40;26.80
21019;DHT22;10667;51.056;3.732;2022-07-17T14:54:48;41.10;27.50
21019;DHT22;10667;51.056;3.732;2022-07-17T14:57:14;41.10;27.00
21019;DHT22;10667;51.056;3.732;2022-07-17T14:59:40;41.00;26.60
21019;DHT22;10667;51.056;3.732;2022-07-17T15:02:06;41.10;27.60
21019;DHT22;10667;51.056;3.732;2022-07-17T15:04:31;40.80;26.20
21019;DHT22;10667;51.056;3.732;2022-07-17T15:06:57;40.80;26.50
21019;DHT22;10667;51.056;3.732;2022-07-17T15:09:22;40.90;27.00
21019;DHT22;10667;51.056;3.732;2022-07-17T15:11:48;40.70;25.90
21019;DHT22;10667;51.056;3.732;2022-07-17T15:14:14;40.70;28.10
21019;DHT22;10667;51.056;3.732;2022-07-17T15:16:40;40.70;26.70
21019;DHT22;10667;51.056;3.732;2022-07-17T15:19:05;41.10;26.30
21019;DHT22;10667;51.056;3.732;2022-07-17T15:21:31;41.20;26.30
21019;DHT22;10667;51.056;3.732;2022-07-17T15:23:56;41.20;26.10
21019;DHT22;10667;51.056;3.732;2022-07-17T15:26:22;41.20;26.70
21019;DHT22;10667;51.056;3.732;2022-07-17T15:28:48;41.00;26.20
21019;DHT22;10667;51.056;3.732;2022-07-17T15:31:13;40.70;26.70